sensor_id;sensor_type;location;lat;lon;timestamp;temperature;humidity
73121;DHT22;61307;49.628;-1.624;2023-08-07T00:01:11;19.10;60.60
73121;DHT22;61307;49.628;-1.624;2023-08-07T00:07:07;19.10;60.80
73121;DHT22;61307;49.628;-1.624;2023-08-07T00:12:36;19.00;60.90
73121;DHT22;61307;49.628;-1.624;2023-08-07T00:15:19;19.00;60.80
73121;DHT22;61307;49.628;-1.624;2023-08-07T00:17:57;18.90;60.80
73121;DHT22;61307;49.628;-1.624;2023-08-07T00:21:02;19.00;61.10
73121;DHT22;61307;49.628;-1.624;2023-08-07T00:23:29;19.00;61.10
73121;DHT22;61307;49.628;-1.624;2023-08-07T00:25:59;19.00;61.10
73121;DHT22;61307;49.628;-1.624;2023-08-07T00:31:12;19.00;60.90
73121;DHT22;61307;49.628;-1.624;2023-08-07T00:36:46;19.00;61.00
73121;DHT22;61307;49.628;-1.624;2023-08-07T00:39:29;19.00;61.00
73121;DHT22;61307;49.628;-1.624;2023-08-07T00:42:24;19.00;60.90
73121;DHT22;61307;49.628;-1.624;2023-08-07T00:44:52;19.00;61.10
73121;DHT22;61307;49.628;-1.624;2023-08-07T00:47:19;19.00;60.90
73121;DHT22;61307;49.628;-1.624;2023-08-07T00:50:00;19.00;61.10
73121;DHT22;61307;49.628;-1.624;2023-08-07T00:52:29;19.10;61.20
73121;DHT22;61307;49.628;-1.624;2023-08-07T00:54:58;19.00;61.20
73121;DHT22;61307;49.628;-1.624;2023-08-07T01:00:59;19.00;61.10
73121;DHT22;61307;49.628;-1.624;2023-08-07T01:03:26;19.00;61.10
73121;DHT22;61307;49.628;-1.624;2023-08-07T01:05:54;19.00;61.20
73121;DHT22;61307;49.628;-1.624;2023-08-07T01:08:30;19.00;61.30
73121;DHT22;61307;49.628;-1.624;2023-08-07T01:11:22;19.00;61.30
73121;DHT22;61307;49.628;-1.624;2023-08-07T01:34:48;18.90;61.40
73121;DHT22;61307;49.628;-1.624;2023-08-07T01:37:26;19.00;61.50
73121;DHT22;61307;49.628;-1.624;2023-08-07T01:40:27;19.00;61.50
73121;DHT22;61307;49.628;-1.624;2023-08-07T01:43:05;19.00;61.50
73121;DHT22;61307;49.628;-1.624;2023-08-07T01:45:32;19.00;61.40
73121;DHT22;61307;49.628;-1.624;2023-08-07T01:48:00;19.00;61.40
73121;DHT22;61307;49.628;-1.624;2023-08-07T01:57:32;19.00;61.40
73121;DHT22;61307;49.628;-1.624;2023-08-07T02:00:12;19.00;61.30
73121;DHT22;61307;49.628;-1.624;2023-08-07T02:02:40;19.00;61.30
73121;DHT22;61307;49.628;-1.624;2023-08-07T02:05:10;19.00;61.30
73121;DHT22;61307;49.628;-1.624;2023-08-07T02:17:20;19.00;61.30
73121;DHT22;61307;49.628;-1.624;2023-08-07T02:19:48;19.00;61.30
73121;DHT22;61307;49.628;-1.624;2023-08-07T02:22:24;19.00;61.30
73121;DHT22;61307;49.628;-1.624;2023-08-07T02:24:53;19.00;61.30
73121;DHT22;61307;49.628;-1.624;2023-08-07T02:27:21;19.00;61.30
73121;DHT22;61307;49.628;-1.624;2023-08-07T02:29:48;19.00;61.30
73121;DHT22;61307;49.628;-1.624;2023-08-07T02:32:18;19.00;61.30
73121;DHT22;61307;49.628;-1.624;2023-08-07T02:34:47;19.00;61.30
73121;DHT22;61307;49.628;-1.624;2023-08-07T02:37:27;19.00;61.20
73121;DHT22;61307;49.628;-1.624;2023-08-07T02:40:06;19.10;61.30
73121;DHT22;61307;49.628;-1.624;2023-08-07T02:42:33;19.00;61.10
73121;DHT22;61307;49.628;-1.624;2023-08-07T02:45:04;19.00;61.10
73121;DHT22;61307;49.628;-1.624;2023-08-07T02:54:54;19.00;60.80
73121;DHT22;61307;49.628;-1.624;2023-08-07T02:57:49;18.90;60.60
73121;DHT22;61307;49.628;-1.624;2023-08-07T03:03:25;18.90;60.40
73121;DHT22;61307;49.628;-1.624;2023-08-07T03:05:52;18.90;60.40
73121;DHT22;61307;49.628;-1.624;2023-08-07T03:08:19;18.90;60.30
73121;DHT22;61307;49.628;-1.624;2023-08-07T03:14:24;18.90;60.20
73121;DHT22;61307;49.628;-1.624;2023-08-07T03:16:54;18.90;60.20
73121;DHT22;61307;49.628;-1.624;2023-08-07T03:19:42;18.90;60.20
73121;DHT22;61307;49.628;-1.624;2023-08-07T03:23:04;18.90;60.20
73121;DHT22;61307;49.628;-1.624;2023-08-07T03:25:30;18.90;60.10
73121;DHT22;61307;49.628;-1.624;2023-08-07T03:27:58;18.90;60.10
73121;DHT22;61307;49.628;-1.624;2023-08-07T03:30:27;18.90;60.10
73121;DHT22;61307;49.628;-1.624;2023-08-07T03:33:07;18.90;60.00
73121;DHT22;61307;49.628;-1.624;2023-08-07T03:35:34;18.90;59.90
73121;DHT22;61307;49.628;-1.624;2023-08-07T03:41:47;18.90;59.80
73121;DHT22;61307;49.628;-1.624;2023-08-07T03:44:15;18.80;59.60
73121;DHT22;61307;49.628;-1.624;2023-08-07T03:49:53;18.80;59.50
73121;DHT22;61307;49.628;-1.624;2023-08-07T03:52:20;18.80;59.50
73121;DHT22;61307;49.628;-1.624;2023-08-07T03:54:47;18.80;59.40
73121;DHT22;61307;49.628;-1.624;2023-08-07T03:57:21;18.80;59.40
73121;DHT22;61307;49.628;-1.624;2023-08-07T03:59:51;18.80;59.40
73121;DHT22;61307;49.628;-1.624;2023-08-07T04:02:21;18.80;59.30
73121;DHT22;61307;49.628;-1.624;2023-08-07T04:08:21;18.80;59.30
73121;DHT22;61307;49.628;-1.624;2023-08-07T04:14:04;18.80;59.30
73121;DHT22;61307;49.628;-1.624;2023-08-07T04:16:31;18.70;59.20
73121;DHT22;61307;49.628;-1.624;2023-08-07T04:29:07;18.70;59.10
73121;DHT22;61307;49.628;-1.624;2023-08-07T04:35:24;18.70;59.10
73121;DHT22;61307;49.628;-1.624;2023-08-07T04:38:25;18.70;59.20
73121;DHT22;61307;49.628;-1.624;2023-08-07T04:40:52;18.70;59.10
73121;DHT22;61307;49.628;-1.624;2023-08-07T04:43:20;18.70;59.20
73121;DHT22;61307;49.628;-1.624;2023-08-07T04:45:49;18.70;59.20
73121;DHT22;61307;49.628;-1.624;2023-08-07T04:48:24;18.70;59.20
73121;DHT22;61307;49.628;-1.624;2023-08-07T04:50:55;18.70;59.20
73121;DHT22;61307;49.628;-1.624;2023-08-07T04:53:50;18.70;59.20
73121;DHT22;61307;49.628;-1.624;2023-08-07T04:56:18;18.70;59.20
73121;DHT22;61307;49.628;-1.624;2023-08-07T04:58:54;18.70;59.20
73121;DHT22;61307;49.628;-1.624;2023-08-07T05:04:36;18.70;59.20
73121;DHT22;61307;49.628;-1.624;2023-08-07T05:07:04;18.70;59.20
73121;DHT22;61307;49.628;-1.624;2023-08-07T05:09:45;18.60;59.10
73121;DHT22;61307;49.628;-1.624;2023-08-07T05:12:12;18.70;59.20
73121;DHT22;61307;49.628;-1.624;2023-08-07T05:14:42;18.70;59.20
73121;DHT22;61307;49.628;-1.624;2023-08-07T05:17:09;18.60;59.10
73121;DHT22;61307;49.628;-1.624;2023-08-07T05:19:46;18.60;59.10
73121;DHT22;61307;49.628;-1.624;2023-08-07T05:22:15;18.60;59.10
73121;DHT22;61307;49.628;-1.624;2023-08-07T05:24:42;18.70;59.20
73121;DHT22;61307;49.628;-1.624;2023-08-07T05:30:56;18.70;59.30
73121;DHT22;61307;49.628;-1.624;2023-08-07T05:33:42;18.70;59.30
73121;DHT22;61307;49.628;-1.624;2023-08-07T05:36:13;18.60;59.40
73121;DHT22;61307;49.628;-1.624;2023-08-07T05:42:25;18.70;59.60
73121;DHT22;61307;49.628;-1.624;2023-08-07T05:48:09;18.70;59.70
73121;DHT22;61307;49.628;-1.624;2023-08-07T05:50:36;18.60;59.60
73121;DHT22;61307;49.628;-1.624;2023-08-07T05:53:40;18.60;59.60
73121;DHT22;61307;49.628;-1.624;2023-08-07T05:56:11;18.60;59.70
73121;DHT22;61307;49.628;-1.624;2023-08-07T05:58:39;18.60;59.70
73121;DHT22;61307;49.628;-1.624;2023-08-07T06:01:09;18.70;59.80
73121;DHT22;61307;49.628;-1.624;2023-08-07T06:03:37;18.70;59.80
73121;DHT22;61307;49.628;-1.624;2023-08-07T06:06:35;18.60;59.80
73121;DHT22;61307;49.628;-1.624;2023-08-07T06:12:47;18.60;59.80
73121;DHT22;61307;49.628;-1.624;2023-08-07T06:15:14;18.60;59.90
73121;DHT22;61307;49.628;-1.624;2023-08-07T06:17:43;18.60;60.00
73121;DHT22;61307;49.628;-1.624;2023-08-07T06:20:10;18.60;60.00
73121;DHT22;61307;49.628;-1.624;2023-08-07T06:22:41;18.70;60.10
73121;DHT22;61307;49.628;-1.624;2023-08-07T06:27:50;18.70;60.20
73121;DHT22;61307;49.628;-1.624;2023-08-07T06:30:22;18.60;60.10
73121;DHT22;61307;49.628;-1.624;2023-08-07T06:36:13;18.70;60.30
73121;DHT22;61307;49.628;-1.624;2023-08-07T06:38:40;18.70;60.30
73121;DHT22;61307;49.628;-1.624;2023-08-07T06:41:07;18.70;60.50
73121;DHT22;61307;49.628;-1.624;2023-08-07T06:43:36;18.70;60.60
73121;DHT22;61307;49.628;-1.624;2023-08-07T06:49:27;18.70;60.80
73121;DHT22;61307;49.628;-1.624;2023-08-07T06:51:57;18.70;60.80
73121;DHT22;61307;49.628;-1.624;2023-08-07T06:54:38;18.70;60.80
73121;DHT22;61307;49.628;-1.624;2023-08-07T06:57:14;18.70;61.00
73121;DHT22;61307;49.628;-1.624;2023-08-07T06:59:50;18.70;61.10
73121;DHT22;61307;49.628;-1.624;2023-08-07T07:02:31;18.70;61.20
73121;DHT22;61307;49.628;-1.624;2023-08-07T07:04:58;18.70;61.30
73121;DHT22;61307;49.628;-1.624;2023-08-07T07:07:26;18.80;61.50
73121;DHT22;61307;49.628;-1.624;2023-08-07T07:09:54;18.80;61.50
73121;DHT22;61307;49.628;-1.624;2023-08-07T07:12:41;18.80;61.60
73121;DHT22;61307;49.628;-1.624;2023-08-07T07:15:11;18.80;61.80
73121;DHT22;61307;49.628;-1.624;2023-08-07T07:21:13;18.80;61.90
73121;DHT22;61307;49.628;-1.624;2023-08-07T07:23:44;18.80;61.90
73121;DHT22;61307;49.628;-1.624;2023-08-07T07:26:23;18.80;62.00
73121;DHT22;61307;49.628;-1.624;2023-08-07T07:35:23;18.90;62.40
73121;DHT22;61307;49.628;-1.624;2023-08-07T07:38:36;18.80;62.40
73121;DHT22;61307;49.628;-1.624;2023-08-07T07:41:17;18.80;63.40
73121;DHT22;61307;49.628;-1.624;2023-08-07T07:43:44;18.80;62.50
73121;DHT22;61307;49.628;-1.624;2023-08-07T07:48:52;18.90;62.60
73121;DHT22;61307;49.628;-1.624;2023-08-07T07:49:24;18.90;62.60
73121;DHT22;61307;49.628;-1.624;2023-08-07T07:51:53;18.90;62.60
73121;DHT22;61307;49.628;-1.624;2023-08-07T07:54:21;18.90;62.70
73121;DHT22;61307;49.628;-1.624;2023-08-07T08:03:17;18.90;62.60
73121;DHT22;61307;49.628;-1.624;2023-08-07T08:05:44;18.90;62.50
73121;DHT22;61307;49.628;-1.624;2023-08-07T08:08:13;18.90;62.60
73121;DHT22;61307;49.628;-1.624;2023-08-07T08:10:40;18.90;62.50
73121;DHT22;61307;49.628;-1.624;2023-08-07T08:13:09;18.90;62.50
73121;DHT22;61307;49.628;-1.624;2023-08-07T08:22:13;18.90;62.70
73121;DHT22;61307;49.628;-1.624;2023-08-07T08:31:41;18.90;62.70
73121;DHT22;61307;49.628;-1.624;2023-08-07T08:36:56;18.80;62.60
73121;DHT22;61307;49.628;-1.624;2023-08-07T08:49:26;18.80;62.70
73121;DHT22;61307;49.628;-1.624;2023-08-07T08:54:37;18.90;62.90
73121;DHT22;61307;49.628;-1.624;2023-08-07T08:57:06;18.80;62.80
73121;DHT22;61307;49.628;-1.624;2023-08-07T08:59:34;18.90;63.00
73121;DHT22;61307;49.628;-1.624;2023-08-07T09:03:06;18.80;63.10
73121;DHT22;61307;49.628;-1.624;2023-08-07T09:11:38;18.70;62.70
73121;DHT22;61307;49.628;-1.624;2023-08-07T09:20:53;18.80;63.00
73121;DHT22;61307;49.628;-1.624;2023-08-07T09:23:24;18.80;63.00
73121;DHT22;61307;49.628;-1.624;2023-08-07T09:26:11;18.80;62.80
73121;DHT22;61307;49.628;-1.624;2023-08-07T09:29:14;18.80;62.60
73121;DHT22;61307;49.628;-1.624;2023-08-07T09:33:29;18.80;63.00
73121;DHT22;61307;49.628;-1.624;2023-08-07T09:38:37;18.80;62.50
73121;DHT22;61307;49.628;-1.624;2023-08-07T09:41:23;18.70;62.40
73121;DHT22;61307;49.628;-1.624;2023-08-07T09:49:33;18.80;62.20
73121;DHT22;61307;49.628;-1.624;2023-08-07T09:52:05;18.80;62.10
73121;DHT22;61307;49.628;-1.624;2023-08-07T09:54:50;18.80;61.80
73121;DHT22;61307;49.628;-1.624;2023-08-07T10:00:26;18.80;61.80
73121;DHT22;61307;49.628;-1.624;2023-08-07T10:02:46;18.80;61.70
73121;DHT22;61307;49.628;-1.624;2023-08-07T10:05:18;18.80;61.90
73121;DHT22;61307;49.628;-1.624;2023-08-07T10:07:57;18.90;61.70
73121;DHT22;61307;49.628;-1.624;2023-08-07T10:10:40;18.80;61.80
73121;DHT22;61307;49.628;-1.624;2023-08-07T10:13:07;18.80;61.60
73121;DHT22;61307;49.628;-1.624;2023-08-07T10:18:25;18.80;61.10
73121;DHT22;61307;49.628;-1.624;2023-08-07T10:20:52;18.90;61.10
73121;DHT22;61307;49.628;-1.624;2023-08-07T10:23:21;18.80;61.00
73121;DHT22;61307;49.628;-1.624;2023-08-07T10:25:53;18.80;61.30
73121;DHT22;61307;49.628;-1.624;2023-08-07T10:29:06;18.90;61.00
73121;DHT22;61307;49.628;-1.624;2023-08-07T10:38:14;18.90;60.40
73121;DHT22;61307;49.628;-1.624;2023-08-07T10:41:07;18.90;60.30
73121;DHT22;61307;49.628;-1.624;2023-08-07T10:43:38;18.90;60.20
73121;DHT22;61307;49.628;-1.624;2023-08-07T10:46:08;18.90;60.30
73121;DHT22;61307;49.628;-1.624;2023-08-07T10:55:31;18.90;60.50
73121;DHT22;61307;49.628;-1.624;2023-08-07T11:04:24;18.90;60.80
73121;DHT22;61307;49.628;-1.624;2023-08-07T11:07:49;18.90;60.20
73121;DHT22;61307;49.628;-1.624;2023-08-07T11:10:17;18.90;60.40
73121;DHT22;61307;49.628;-1.624;2023-08-07T11:12:59;18.90;61.70
73121;DHT22;61307;49.628;-1.624;2023-08-07T11:19:18;19.00;60.90
73121;DHT22;61307;49.628;-1.624;2023-08-07T11:21:46;19.00;61.00
73121;DHT22;61307;49.628;-1.624;2023-08-07T11:24:16;19.00;60.80
73121;DHT22;61307;49.628;-1.624;2023-08-07T11:26:46;19.00;60.70
73121;DHT22;61307;49.628;-1.624;2023-08-07T11:29:37;19.00;60.50
73121;DHT22;61307;49.628;-1.624;2023-08-07T11:32:05;19.00;60.60
73121;DHT22;61307;49.628;-1.624;2023-08-07T11:37:55;19.00;60.80
73121;DHT22;61307;49.628;-1.624;2023-08-07T11:43:30;19.00;60.90
73121;DHT22;61307;49.628;-1.624;2023-08-07T11:46:01;19.00;60.90
73121;DHT22;61307;49.628;-1.624;2023-08-07T11:48:30;19.00;61.10
73121;DHT22;61307;49.628;-1.624;2023-08-07T11:54:46;19.00;60.80
73121;DHT22;61307;49.628;-1.624;2023-08-07T11:57:17;19.00;60.30
73121;DHT22;61307;49.628;-1.624;2023-08-07T11:59:59;19.00;60.10
73121;DHT22;61307;49.628;-1.624;2023-08-07T12:02:46;19.10;60.10
73121;DHT22;61307;49.628;-1.624;2023-08-07T12:05:13;19.10;60.40
73121;DHT22;61307;49.628;-1.624;2023-08-07T12:07:47;19.10;60.00
73121;DHT22;61307;49.628;-1.624;2023-08-07T12:10:16;19.10;60.00
73121;DHT22;61307;49.628;-1.624;2023-08-07T12:19:01;19.10;60.20
73121;DHT22;61307;49.628;-1.624;2023-08-07T12:25:20;19.10;60.10
73121;DHT22;61307;49.628;-1.624;2023-08-07T12:31:20;19.20;60.30
73121;DHT22;61307;49.628;-1.624;2023-08-07T12:33:50;19.10;60.10
73121;DHT22;61307;49.628;-1.624;2023-08-07T12:36:18;19.20;59.90
73121;DHT22;61307;49.628;-1.624;2023-08-07T12:38:47;19.20;59.80
73121;DHT22;61307;49.628;-1.624;2023-08-07T12:44:38;19.20;59.80
73121;DHT22;61307;49.628;-1.624;2023-08-07T12:47:30;19.20;59.70
73121;DHT22;61307;49.628;-1.624;2023-08-07T12:49:59;19.20;59.50
73121;DHT22;61307;49.628;-1.624;2023-08-07T12:55:51;19.20;59.50
73121;DHT22;61307;49.628;-1.624;2023-08-07T13:01:35;19.20;59.60
73121;DHT22;61307;49.628;-1.624;2023-08-07T13:06:54;19.30;59.60
73121;DHT22;61307;49.628;-1.624;2023-08-07T13:09:43;19.30;59.60
73121;DHT22;61307;49.628;-1.624;2023-08-07T13:12:11;19.30;59.60
73121;DHT22;61307;49.628;-1.624;2023-08-07T13:14:38;19.30;59.60
73121;DHT22;61307;49.628;-1.624;2023-08-07T13:17:07;19.30;59.60
73121;DHT22;61307;49.628;-1.624;2023-08-07T13:26:21;19.30;59.60
73121;DHT22;61307;49.628;-1.624;2023-08-07T13:28:49;19.30;59.60
73121;DHT22;61307;49.628;-1.624;2023-08-07T13:31:16;19.30;59.60
73121;DHT22;61307;49.628;-1.624;2023-08-07T13:33:45;19.30;59.60
73121;DHT22;61307;49.628;-1.624;2023-08-07T13:36:26;19.40;59.70
73121;DHT22;61307;49.628;-1.624;2023-08-07T13:39:00;19.40;59.80
73121;DHT22;61307;49.628;-1.624;2023-08-07T13:41:33;19.40;59.70
73121;DHT22;61307;49.628;-1.624;2023-08-07T13:44:00;19.40;59.70
73121;DHT22;61307;49.628;-1.624;2023-08-07T13:46:28;19.40;59.80
73121;DHT22;61307;49.628;-1.624;2023-08-07T13:48:57;19.40;59.90
73121;DHT22;61307;49.628;-1.624;2023-08-07T13:51:47;19.40;59.80
73121;DHT22;61307;49.628;-1.624;2023-08-07T13:54:14;19.40;59.80
73121;DHT22;61307;49.628;-1.624;2023-08-07T13:56:42;19.40;59.80
73121;DHT22;61307;49.628;-1.624;2023-08-07T13:59:09;19.40;59.90
73121;DHT22;61307;49.628;-1.624;2023-08-07T14:01:37;19.40;61.00
73121;DHT22;61307;49.628;-1.624;2023-08-07T14:04:08;19.40;60.10
73121;DHT22;61307;49.628;-1.624;2023-08-07T14:06:55;19.40;60.50
73121;DHT22;61307;49.628;-1.624;2023-08-07T14:12:13;19.40;60.30
73121;DHT22;61307;49.628;-1.624;2023-08-07T14:14:42;19.40;60.30
73121;DHT22;61307;49.628;-1.624;2023-08-07T14:17:09;19.40;60.20
73121;DHT22;61307;49.628;-1.624;2023-08-07T14:26:13;19.40;60.50
73121;DHT22;61307;49.628;-1.624;2023-08-07T14:29:17;19.40;60.50
73121;DHT22;61307;49.628;-1.624;2023-08-07T14:31:54;19.40;59.70
73121;DHT22;61307;49.628;-1.624;2023-08-07T14:34:22;19.40;59.70
73121;DHT22;61307;49.628;-1.624;2023-08-07T14:36:52;19.50;59.80
73121;DHT22;61307;49.628;-1.624;2023-08-07T14:39:20;19.50;59.80
73121;DHT22;61307;49.628;-1.624;2023-08-07T14:41:49;19.50;59.80
73121;DHT22;61307;49.628;-1.624;2023-08-07T14:44:33;19.50;59.80
73121;DHT22;61307;49.628;-1.624;2023-08-07T14:47:48;19.50;59.80
73121;DHT22;61307;49.628;-1.624;2023-08-07T14:50:37;19.50;59.60
73121;DHT22;61307;49.628;-1.624;2023-08-07T14:53:26;19.40;59.70
73121;DHT22;61307;49.628;-1.624;2023-08-07T14:56:01;19.50;59.80
73121;DHT22;61307;49.628;-1.624;2023-08-07T15:02:07;19.50;59.80
73121;DHT22;61307;49.628;-1.624;2023-08-07T15:04:34;19.50;59.80
73121;DHT22;61307;49.628;-1.624;2023-08-07T15:07:12;19.50;59.80
73121;DHT22;61307;49.628;-1.624;2023-08-07T15:09:53;19.50;59.80
73121;DHT22;61307;49.628;-1.624;2023-08-07T15:15:24;19.50;59.90
73121;DHT22;61307;49.628;-1.624;2023-08-07T15:17:53;19.50;59.90
73121;DHT22;61307;49.628;-1.624;2023-08-07T15:20:33;19.60;60.00
73121;DHT22;61307;49.628;-1.624;2023-08-07T15:23:15;19.60;60.10
73121;DHT22;61307;49.628;-1.624;2023-08-07T15:25:42;19.60;59.90
73121;DHT22;61307;49.628;-1.624;2023-08-07T15:31:47;19.60;59.80
73121;DHT22;61307;49.628;-1.624;2023-08-07T15:34:16;19.60;59.90
73121;DHT22;61307;49.628;-1.624;2023-08-07T15:36:43;19.50;59.80
73121;DHT22;61307;49.628;-1.624;2023-08-07T15:39:11;19.50;59.80
73121;DHT22;61307;49.628;-1.624;2023-08-07T15:41:39;19.60;59.90
73121;DHT22;61307;49.628;-1.624;2023-08-07T15:44:22;19.60;59.90
73121;DHT22;61307;49.628;-1.624;2023-08-07T15:46:49;19.60;59.90
73121;DHT22;61307;49.628;-1.624;2023-08-07T15:49:24;19.60;59.80
73121;DHT22;61307;49.628;-1.624;2023-08-07T15:51:54;19.60;59.80
73121;DHT22;61307;49.628;-1.624;2023-08-07T15:54:23;19.60;59.80
73121;DHT22;61307;49.628;-1.624;2023-08-07T15:56:50;19.60;59.80
73121;DHT22;61307;49.628;-1.624;2023-08-07T15:59:18;19.50;59.80
73121;DHT22;61307;49.628;-1.624;2023-08-07T16:01:56;19.60;59.90
73121;DHT22;61307;49.628;-1.624;2023-08-07T16:04:38;19.60;59.80
73121;DHT22;61307;49.628;-1.624;2023-08-07T16:07:06;19.60;59.80
73121;DHT22;61307;49.628;-1.624;2023-08-07T16:09:33;19.60;59.90
73121;DHT22;61307;49.628;-1.624;2023-08-07T16:12:02;19.60;59.90
73121;DHT22;61307;49.628;-1.624;2023-08-07T16:15:08;19.60;59.90
73121;DHT22;61307;49.628;-1.624;2023-08-07T16:17:48;19.60;59.90
73121;DHT22;61307;49.628;-1.624;2023-08-07T16:23:53;19.60;59.90
73121;DHT22;61307;49.628;-1.624;2023-08-07T16:29:41;19.60;59.90
73121;DHT22;61307;49.628;-1.624;2023-08-07T16:32:09;19.60;59.80
73121;DHT22;61307;49.628;-1.624;2023-08-07T16:34:50;19.60;59.90
73121;DHT22;61307;49.628;-1.624;2023-08-07T16:37:18;19.70;59.90
73121;DHT22;61307;49.628;-1.624;2023-08-07T16:39:47;19.70;60.00
73121;DHT22;61307;49.628;-1.624;2023-08-07T16:42:14;19.70;60.00
73121;DHT22;61307;49.628;-1.624;2023-08-07T16:45:14;19.70;60.00
73121;DHT22;61307;49.628;-1.624;2023-08-07T16:47:42;19.70;59.90
73121;DHT22;61307;49.628;-1.624;2023-08-07T16:50:15;19.70;60.00
73121;DHT22;61307;49.628;-1.624;2023-08-07T16:52:53;19.70;60.00
73121;DHT22;61307;49.628;-1.624;2023-08-07T16:55:22;19.80;60.10
73121;DHT22;61307;49.628;-1.624;2023-08-07T16:58:03;19.80;60.10
73121;DHT22;61307;49.628;-1.624;2023-08-07T17:00:44;19.80;60.10
73121;DHT22;61307;49.628;-1.624;2023-08-07T17:03:11;19.80;60.00
73121;DHT22;61307;49.628;-1.624;2023-08-07T17:05:40;19.80;60.10
73121;DHT22;61307;49.628;-1.624;2023-08-07T17:08:07;19.80;60.20
73121;DHT22;61307;49.628;-1.624;2023-08-07T17:10:37;19.70;60.10
73121;DHT22;61307;49.628;-1.624;2023-08-07T17:13:05;19.70;60.60
73121;DHT22;61307;49.628;-1.624;2023-08-07T17:16:35;19.70;60.80
73121;DHT22;61307;49.628;-1.624;2023-08-07T17:19:15;19.70;60.90
73121;DHT22;61307;49.628;-1.624;2023-08-07T17:21:42;19.70;61.10
73121;DHT22;61307;49.628;-1.624;2023-08-07T17:27:15;19.70;61.50
73121;DHT22;61307;49.628;-1.624;2023-08-07T17:29:42;19.70;61.60
73121;DHT22;61307;49.628;-1.624;2023-08-07T17:42:10;19.60;61.30
73121;DHT22;61307;49.628;-1.624;2023-08-07T17:44:59;19.60;61.30
73121;DHT22;61307;49.628;-1.624;2023-08-07T17:47:28;19.60;61.00
73121;DHT22;61307;49.628;-1.624;2023-08-07T17:49:55;19.50;61.00
73121;DHT22;61307;49.628;-1.624;2023-08-07T17:52:25;19.50;60.90
73121;DHT22;61307;49.628;-1.624;2023-08-07T17:54:55;19.50;61.00
73121;DHT22;61307;49.628;-1.624;2023-08-07T18:00:59;19.50;61.20
73121;DHT22;61307;49.628;-1.624;2023-08-07T18:03:29;19.40;61.20
73121;DHT22;61307;49.628;-1.624;2023-08-07T18:05:58;19.40;61.40
73121;DHT22;61307;49.628;-1.624;2023-08-07T18:11:40;19.40;61.60
73121;DHT22;61307;49.628;-1.624;2023-08-07T18:14:08;19.40;61.60
73121;DHT22;61307;49.628;-1.624;2023-08-07T18:30:08;19.40;61.80
73121;DHT22;61307;49.628;-1.624;2023-08-07T18:39:31;19.40;61.90
73121;DHT22;61307;49.628;-1.624;2023-08-07T18:48:14;19.40;61.80
73121;DHT22;61307;49.628;-1.624;2023-08-07T18:50:45;19.30;61.60
73121;DHT22;61307;49.628;-1.624;2023-08-07T18:53:38;19.30;61.50
73121;DHT22;61307;49.628;-1.624;2023-08-07T18:59:25;19.30;61.50
73121;DHT22;61307;49.628;-1.624;2023-08-07T19:01:59;19.30;61.50
73121;DHT22;61307;49.628;-1.624;2023-08-07T19:05:12;19.30;61.40
73121;DHT22;61307;49.628;-1.624;2023-08-07T19:07:45;19.40;61.60
73121;DHT22;61307;49.628;-1.624;2023-08-07T19:10:13;19.30;61.50
73121;DHT22;61307;49.628;-1.624;2023-08-07T19:16:17;19.40;61.70
73121;DHT22;61307;49.628;-1.624;2023-08-07T19:25:40;19.40;61.80
73121;DHT22;61307;49.628;-1.624;2023-08-07T19:28:07;19.30;61.60
73121;DHT22;61307;49.628;-1.624;2023-08-07T19:31:00;19.30;61.60
73121;DHT22;61307;49.628;-1.624;2023-08-07T19:33:29;19.30;61.70
73121;DHT22;61307;49.628;-1.624;2023-08-07T19:36:34;19.30;61.80
73121;DHT22;61307;49.628;-1.624;2023-08-07T19:46:14;19.30;62.00
73121;DHT22;61307;49.628;-1.624;2023-08-07T19:48:45;19.30;62.00
73121;DHT22;61307;49.628;-1.624;2023-08-07T19:54:23;19.30;62.20
73121;DHT22;61307;49.628;-1.624;2023-08-07T19:56:59;19.30;62.20
73121;DHT22;61307;49.628;-1.624;2023-08-07T20:03:10;19.30;62.20
73121;DHT22;61307;49.628;-1.624;2023-08-07T20:06:34;19.30;62.20
73121;DHT22;61307;49.628;-1.624;2023-08-07T20:08:44;19.30;62.10
73121;DHT22;61307;49.628;-1.624;2023-08-07T20:11:11;19.30;62.20
73121;DHT22;61307;49.628;-1.624;2023-08-07T20:14:28;19.30;62.30
73121;DHT22;61307;49.628;-1.624;2023-08-07T20:16:42;19.30;62.30
73121;DHT22;61307;49.628;-1.624;2023-08-07T20:19:23;19.30;62.40
73121;DHT22;61307;49.628;-1.624;2023-08-07T20:25:34;19.30;62.50
73121;DHT22;61307;49.628;-1.624;2023-08-07T20:28:01;19.30;62.40
73121;DHT22;61307;49.628;-1.624;2023-08-07T20:33:20;19.30;62.40
73121;DHT22;61307;49.628;-1.624;2023-08-07T20:35:50;19.40;62.50
73121;DHT22;61307;49.628;-1.624;2023-08-07T20:38:18;19.30;62.50
73121;DHT22;61307;49.628;-1.624;2023-08-07T20:41:07;19.30;62.40
73121;DHT22;61307;49.628;-1.624;2023-08-07T20:46:36;19.30;62.50
73121;DHT22;61307;49.628;-1.624;2023-08-07T20:49:23;19.30;62.50
73121;DHT22;61307;49.628;-1.624;2023-08-07T20:51:56;19.30;62.50
73121;DHT22;61307;49.628;-1.624;2023-08-07T20:59:48;19.30;62.50
73121;DHT22;61307;49.628;-1.624;2023-08-07T21:02:18;19.30;62.50
73121;DHT22;61307;49.628;-1.624;2023-08-07T21:04:48;19.30;62.50
73121;DHT22;61307;49.628;-1.624;2023-08-07T21:07:33;19.30;62.50
73121;DHT22;61307;49.628;-1.624;2023-08-07T21:10:01;19.40;62.60
73121;DHT22;61307;49.628;-1.624;2023-08-07T21:22:22;19.30;62.50
73121;DHT22;61307;49.628;-1.624;2023-08-07T21:24:55;19.30;62.50
73121;DHT22;61307;49.628;-1.624;2023-08-07T21:27:36;19.30;62.50
73121;DHT22;61307;49.628;-1.624;2023-08-07T21:40:18;19.30;62.30
73121;DHT22;61307;49.628;-1.624;2023-08-07T21:42:45;19.30;62.30
73121;DHT22;61307;49.628;-1.624;2023-08-07T21:45:12;19.30;62.30
73121;DHT22;61307;49.628;-1.624;2023-08-07T21:47:39;19.30;62.20
73121;DHT22;61307;49.628;-1.624;2023-08-07T21:59:36;19.30;62.10
73121;DHT22;61307;49.628;-1.624;2023-08-07T22:02:06;19.30;61.90
73121;DHT22;61307;49.628;-1.624;2023-08-07T22:05:03;19.20;61.80
73121;DHT22;61307;49.628;-1.624;2023-08-07T22:07:32;19.20;61.80
73121;DHT22;61307;49.628;-1.624;2023-08-07T22:16:37;19.20;61.60
73121;DHT22;61307;49.628;-1.624;2023-08-07T22:23:27;19.20;61.60
73121;DHT22;61307;49.628;-1.624;2023-08-07T22:25:46;19.20;61.50
73121;DHT22;61307;49.628;-1.624;2023-08-07T22:28:14;19.20;61.50
73121;DHT22;61307;49.628;-1.624;2023-08-07T22:33:35;19.20;61.50
73121;DHT22;61307;49.628;-1.624;2023-08-07T22:36:03;19.20;61.50
73121;DHT22;61307;49.628;-1.624;2023-08-07T22:38:42;19.20;61.50
73121;DHT22;61307;49.628;-1.624;2023-08-07T22:44:52;19.20;61.40
73121;DHT22;61307;49.628;-1.624;2023-08-07T22:51:06;19.20;61.40
73121;DHT22;61307;49.628;-1.624;2023-08-07T22:53:35;19.20;61.30
73121;DHT22;61307;49.628;-1.624;2023-08-07T22:56:35;19.20;61.30
73121;DHT22;61307;49.628;-1.624;2023-08-07T22:59:03;19.20;61.30
73121;DHT22;61307;49.628;-1.624;2023-08-07T23:01:31;19.20;61.40
73121;DHT22;61307;49.628;-1.624;2023-08-07T23:03:58;19.20;61.30
73121;DHT22;61307;49.628;-1.624;2023-08-07T23:06:30;19.20;61.30